Grass Lake, MI (49240)

1:00 AM EST on January 22, 2017 (GMT -0500)
Stull Rd Grup | | Change Station
Active Advisory: Dense Fog Advisory

Elev 997 ft 42.29 °N, 84.26 °W | Updated 42 seconds ago

Fog
Fog
44.4 °F
Feels Like 44 °F
N
0.0
Wind Variable Wind from NNW

Today
High -- | Low -- °F
--% Chance of Precip.
Yesterday
High -- | Low -- °F
Precip. -- in
Pressure 29.61 in
Visibility 1.5 miles
Clouds Clear
Windchill 44 °F
Dew Point 42 °F
Humidity 93%
Rainfall 0.00 in
Snow Depth Not available.
7:58 AM 5:38 PM
Waning Crescent, 29% visible
METAR KJXN 220556Z AUTO 23004KT 1 1/2SM BR CLR 09/08 A2960 RMK AO2 SLP025 T00890083 10111 20089 58002
Pressure 29.61 in
Visibility 1.5 miles
Clouds Clear
Windchill 44 °F
Dew Point 42 °F
Humidity 93%
Rainfall 0.00 in
Snow Depth Not available.
7:58 AM 5:38 PM
Waning Crescent, 29% visible
METAR KJXN 220556Z AUTO 23004KT 1 1/2SM BR CLR 09/08 A2960 RMK AO2 SLP025 T00890083 10111 20089 58002

Get Your Daily Forecast Email!

Thanks for signing up!

Be on the lookout for a verification email in your inbox.

You'll start receiving the daily forecast at 8 AM.

×

10-Day Weather Forecast

Almanac

Astronomy

Jan. 22, 2017 Rise Set
Actual Time
Civil Twilight
Nautical Twilight
Astronomical Twilight
Moon
Length of Visible Light
Length of Day
Tomorrow will be .
, % of the Moon is Illuminated

Today's Extremes

State Highs State Lows

Community

WunderPhotos

Upload Photos

1,962,540 photos uploaded!

WunderBlog® & News

Nearby

Air Quality

  Air Quality AQ Index Pollutant
Not available.

Snow Depth

Station Depth Elevation

Earthquake Activity

City Distance Mag. Time & Date
Minimum magnitude displayed is 2.5.

Coastal Water Temperatures

Place Temperature

Stations

Nearby Weather Stations

Station Location Temp. Windchill Dew Point Humidity Wind Precip. Elev Updated Type
                   

Watches & Warnings

Dense Fog Advisory
Issued: 8:55 PM EST Jan. 21, 2017 – National Weather Service

... Dense fog advisory remains in effect until 10 am EST Sunday...

Hazardous weather...

* areas of fog will develop and expand southward overnight.
   Widespread dense fog is expected for the entire area tonight
   into Sunday morning.

* Visibilities will be one-quarter mile or less.

* Fog will gradually dissipate through Sunday morning.

Impacts...

* hazardous driving conditions in reduced visibilities.

Precautionary/preparedness actions...

* if driving... slow down... use low beam headlights... and leave
   plenty of distance ahead of you.